sensor_id;sensor_type;location;lat;lon;timestamp;P1;durP1;ratioP1;P2;durP2;ratioP2
33844;SDS011;20145;43.118;25.694;2023-12-20T00:01:35;3.08;;;2.78;;
33844;SDS011;20145;43.118;25.694;2023-12-20T00:04:02;2.97;;;2.67;;
33844;SDS011;20145;43.118;25.694;2023-12-20T00:06:28;5.00;;;2.80;;
33844;SDS011;20145;43.118;25.694;2023-12-20T00:08:54;3.10;;;2.63;;
33844;SDS011;20145;43.118;25.694;2023-12-20T00:11:20;3.28;;;2.97;;
33844;SDS011;20145;43.118;25.694;2023-12-20T00:13:46;3.60;;;3.17;;
33844;SDS011;20145;43.118;25.694;2023-12-20T00:16:11;3.05;;;2.75;;
33844;SDS011;20145;43.118;25.694;2023-12-20T00:18:37;2.67;;;2.33;;
33844;SDS011;20145;43.118;25.694;2023-12-20T00:21:03;2.78;;;2.58;;
33844;SDS011;20145;43.118;25.694;2023-12-20T00:23:29;2.75;;;2.45;;
33844;SDS011;20145;43.118;25.694;2023-12-20T00:25:55;2.50;;;2.30;;
33844;SDS011;20145;43.118;25.694;2023-12-20T00:28:20;3.25;;;2.50;;
33844;SDS011;20145;43.118;25.694;2023-12-20T00:30:46;2.85;;;2.45;;
33844;SDS011;20145;43.118;25.694;2023-12-20T00:33:12;6.72;;;3.00;;
33844;SDS011;20145;43.118;25.694;2023-12-20T00:35:37;5.07;;;2.83;;
33844;SDS011;20145;43.118;25.694;2023-12-20T00:38:03;3.42;;;2.67;;
33844;SDS011;20145;43.118;25.694;2023-12-20T00:40:30;3.10;;;2.80;;
33844;SDS011;20145;43.118;25.694;2023-12-20T00:42:56;3.53;;;3.05;;
33844;SDS011;20145;43.118;25.694;2023-12-20T00:45:21;3.67;;;3.38;;
33844;SDS011;20145;43.118;25.694;2023-12-20T00:47:47;5.05;;;3.85;;
33844;SDS011;20145;43.118;25.694;2023-12-20T00:50:13;5.63;;;4.90;;
33844;SDS011;20145;43.118;25.694;2023-12-20T00:52:38;6.63;;;5.30;;
33844;SDS011;20145;43.118;25.694;2023-12-20T00:55:05;7.53;;;5.57;;
33844;SDS011;20145;43.118;25.694;2023-12-20T00:57:31;5.28;;;4.75;;
33844;SDS011;20145;43.118;25.694;2023-12-20T00:59:57;4.07;;;3.50;;
33844;SDS011;20145;43.118;25.694;2023-12-20T01:02:22;4.30;;;3.60;;
33844;SDS011;20145;43.118;25.694;2023-12-20T01:04:48;6.63;;;4.30;;
33844;SDS011;20145;43.118;25.694;2023-12-20T01:07:13;3.28;;;2.97;;
33844;SDS011;20145;43.118;25.694;2023-12-20T01:09:39;4.53;;;3.78;;
33844;SDS011;20145;43.118;25.694;2023-12-20T01:12:05;3.80;;;3.40;;
33844;SDS011;20145;43.118;25.694;2023-12-20T01:14:31;10.07;;;4.25;;
33844;SDS011;20145;43.118;25.694;2023-12-20T01:16:56;4.57;;;4.15;;
33844;SDS011;20145;43.118;25.694;2023-12-20T01:19:22;4.80;;;4.40;;
33844;SDS011;20145;43.118;25.694;2023-12-20T01:21:49;5.05;;;4.57;;
33844;SDS011;20145;43.118;25.694;2023-12-20T01:24:15;5.20;;;4.35;;
33844;SDS011;20145;43.118;25.694;2023-12-20T01:26:41;4.13;;;3.72;;
33844;SDS011;20145;43.118;25.694;2023-12-20T01:29:07;4.07;;;3.67;;
33844;SDS011;20145;43.118;25.694;2023-12-20T01:31:33;3.05;;;2.75;;
33844;SDS011;20145;43.118;25.694;2023-12-20T01:33:58;3.63;;;3.33;;
33844;SDS011;20145;43.118;25.694;2023-12-20T01:36:24;3.40;;;3.10;;
33844;SDS011;20145;43.118;25.694;2023-12-20T01:38:49;4.22;;;3.30;;
33844;SDS011;20145;43.118;25.694;2023-12-20T01:41:15;3.50;;;3.20;;
33844;SDS011;20145;43.118;25.694;2023-12-20T01:43:41;2.67;;;2.42;;
33844;SDS011;20145;43.118;25.694;2023-12-20T01:46:07;3.13;;;2.85;;
33844;SDS011;20145;43.118;25.694;2023-12-20T01:48:32;2.88;;;2.38;;
33844;SDS011;20145;43.118;25.694;2023-12-20T01:50:59;2.70;;;2.50;;
33844;SDS011;20145;43.118;25.694;2023-12-20T01:53:25;2.42;;;2.20;;
33844;SDS011;20145;43.118;25.694;2023-12-20T01:55:54;2.95;;;2.65;;
33844;SDS011;20145;43.118;25.694;2023-12-20T01:58:21;2.90;;;2.55;;
33844;SDS011;20145;43.118;25.694;2023-12-20T02:00:48;2.45;;;2.25;;
33844;SDS011;20145;43.118;25.694;2023-12-20T02:03:14;2.47;;;2.28;;
33844;SDS011;20145;43.118;25.694;2023-12-20T02:05:41;2.38;;;2.28;;
33844;SDS011;20145;43.118;25.694;2023-12-20T02:08:06;3.33;;;2.05;;
33844;SDS011;20145;43.118;25.694;2023-12-20T02:10:32;3.17;;;2.80;;
33844;SDS011;20145;43.118;25.694;2023-12-20T02:12:58;4.43;;;2.22;;
33844;SDS011;20145;43.118;25.694;2023-12-20T02:15:23;2.78;;;2.45;;
33844;SDS011;20145;43.118;25.694;2023-12-20T02:17:49;5.55;;;4.28;;
33844;SDS011;20145;43.118;25.694;2023-12-20T02:20:16;3.33;;;2.40;;
33844;SDS011;20145;43.118;25.694;2023-12-20T02:22:41;3.00;;;2.40;;
33844;SDS011;20145;43.118;25.694;2023-12-20T02:25:07;3.17;;;2.88;;
33844;SDS011;20145;43.118;25.694;2023-12-20T02:27:33;3.35;;;3.05;;
33844;SDS011;20145;43.118;25.694;2023-12-20T02:30:00;4.03;;;3.63;;
33844;SDS011;20145;43.118;25.694;2023-12-20T02:32:25;5.03;;;3.72;;
33844;SDS011;20145;43.118;25.694;2023-12-20T02:34:51;4.85;;;4.35;;
33844;SDS011;20145;43.118;25.694;2023-12-20T02:37:17;5.20;;;4.65;;
33844;SDS011;20145;43.118;25.694;2023-12-20T02:39:43;5.88;;;5.20;;
33844;SDS011;20145;43.118;25.694;2023-12-20T02:42:09;7.00;;;6.20;;
33844;SDS011;20145;43.118;25.694;2023-12-20T02:44:35;7.13;;;5.43;;
33844;SDS011;20145;43.118;25.694;2023-12-20T02:47:01;6.47;;;5.63;;
33844;SDS011;20145;43.118;25.694;2023-12-20T02:49:27;10.65;;;8.45;;
33844;SDS011;20145;43.118;25.694;2023-12-20T02:51:53;10.55;;;7.68;;
33844;SDS011;20145;43.118;25.694;2023-12-20T02:54:19;11.63;;;9.32;;
33844;SDS011;20145;43.118;25.694;2023-12-20T02:56:44;10.18;;;7.93;;
33844;SDS011;20145;43.118;25.694;2023-12-20T02:59:10;18.17;;;12.55;;
33844;SDS011;20145;43.118;25.694;2023-12-20T03:01:36;13.52;;;10.10;;
33844;SDS011;20145;43.118;25.694;2023-12-20T03:06:32;12.68;;;9.05;;
33844;SDS011;20145;43.118;25.694;2023-12-20T03:08:58;8.15;;;6.95;;
33844;SDS011;20145;43.118;25.694;2023-12-20T03:11:26;7.90;;;6.78;;
33844;SDS011;20145;43.118;25.694;2023-12-20T03:13:52;11.95;;;10.02;;
33844;SDS011;20145;43.118;25.694;2023-12-20T03:16:18;8.18;;;6.43;;
33844;SDS011;20145;43.118;25.694;2023-12-20T03:18:44;15.57;;;8.10;;
33844;SDS011;20145;43.118;25.694;2023-12-20T03:21:09;12.55;;;8.38;;
33844;SDS011;20145;43.118;25.694;2023-12-20T03:23:35;8.05;;;5.90;;
33844;SDS011;20145;43.118;25.694;2023-12-20T03:26:01;8.82;;;6.85;;
33844;SDS011;20145;43.118;25.694;2023-12-20T03:28:27;8.15;;;7.00;;
33844;SDS011;20145;43.118;25.694;2023-12-20T03:30:53;7.45;;;6.45;;
33844;SDS011;20145;43.118;25.694;2023-12-20T03:33:19;9.95;;;7.53;;
33844;SDS011;20145;43.118;25.694;2023-12-20T03:35:44;10.70;;;7.68;;
33844;SDS011;20145;43.118;25.694;2023-12-20T03:38:10;9.13;;;6.78;;
33844;SDS011;20145;43.118;25.694;2023-12-20T03:40:36;12.07;;;9.07;;
33844;SDS011;20145;43.118;25.694;2023-12-20T03:43:01;9.23;;;7.35;;
33844;SDS011;20145;43.118;25.694;2023-12-20T03:45:27;9.40;;;7.65;;
33844;SDS011;20145;43.118;25.694;2023-12-20T03:47:52;10.30;;;8.15;;
33844;SDS011;20145;43.118;25.694;2023-12-20T03:50:21;7.88;;;6.75;;
33844;SDS011;20145;43.118;25.694;2023-12-20T03:52:47;9.23;;;7.32;;
33844;SDS011;20145;43.118;25.694;2023-12-20T03:55:13;8.93;;;6.63;;
33844;SDS011;20145;43.118;25.694;2023-12-20T03:57:39;8.63;;;6.57;;
33844;SDS011;20145;43.118;25.694;2023-12-20T04:00:05;7.18;;;6.45;;
33844;SDS011;20145;43.118;25.694;2023-12-20T04:02:38;5.83;;;5.13;;
33844;SDS011;20145;43.118;25.694;2023-12-20T04:05:05;5.82;;;5.28;;
33844;SDS011;20145;43.118;25.694;2023-12-20T04:07:31;8.50;;;5.82;;
33844;SDS011;20145;43.118;25.694;2023-12-20T04:09:57;5.60;;;4.63;;
33844;SDS011;20145;43.118;25.694;2023-12-20T04:12:23;3.67;;;3.38;;
33844;SDS011;20145;43.118;25.694;2023-12-20T04:14:48;4.90;;;4.38;;
33844;SDS011;20145;43.118;25.694;2023-12-20T04:17:14;3.72;;;3.42;;
33844;SDS011;20145;43.118;25.694;2023-12-20T04:19:41;6.13;;;3.40;;
33844;SDS011;20145;43.118;25.694;2023-12-20T04:22:07;3.70;;;3.10;;
33844;SDS011;20145;43.118;25.694;2023-12-20T04:24:33;3.50;;;3.20;;
33844;SDS011;20145;43.118;25.694;2023-12-20T04:26:58;3.53;;;2.67;;
33844;SDS011;20145;43.118;25.694;2023-12-20T04:29:24;2.88;;;2.67;;
33844;SDS011;20145;43.118;25.694;2023-12-20T04:31:50;2.88;;;2.67;;
33844;SDS011;20145;43.118;25.694;2023-12-20T04:34:17;4.10;;;2.70;;
33844;SDS011;20145;43.118;25.694;2023-12-20T04:36:43;3.25;;;2.88;;
33844;SDS011;20145;43.118;25.694;2023-12-20T04:39:09;3.30;;;3.00;;
33844;SDS011;20145;43.118;25.694;2023-12-20T04:41:35;4.43;;;3.13;;
33844;SDS011;20145;43.118;25.694;2023-12-20T04:44:01;3.85;;;2.85;;
33844;SDS011;20145;43.118;25.694;2023-12-20T04:46:27;3.10;;;2.90;;
33844;SDS011;20145;43.118;25.694;2023-12-20T04:48:53;3.42;;;2.80;;
33844;SDS011;20145;43.118;25.694;2023-12-20T04:51:18;3.20;;;2.90;;
33844;SDS011;20145;43.118;25.694;2023-12-20T04:53:44;3.30;;;3.00;;
33844;SDS011;20145;43.118;25.694;2023-12-20T04:56:10;4.07;;;3.67;;
33844;SDS011;20145;43.118;25.694;2023-12-20T04:58:35;4.18;;;3.78;;
33844;SDS011;20145;43.118;25.694;2023-12-20T05:01:01;4.22;;;3.53;;
33844;SDS011;20145;43.118;25.694;2023-12-20T05:03:27;5.18;;;4.68;;
33844;SDS011;20145;43.118;25.694;2023-12-20T05:05:52;5.43;;;4.78;;
33844;SDS011;20145;43.118;25.694;2023-12-20T05:08:18;5.55;;;4.85;;
33844;SDS011;20145;43.118;25.694;2023-12-20T05:10:44;6.63;;;5.93;;
33844;SDS011;20145;43.118;25.694;2023-12-20T05:13:10;6.43;;;5.68;;
33844;SDS011;20145;43.118;25.694;2023-12-20T05:15:36;7.72;;;6.55;;
33844;SDS011;20145;43.118;25.694;2023-12-20T05:18:01;8.10;;;7.13;;
33844;SDS011;20145;43.118;25.694;2023-12-20T05:20:27;10.73;;;6.40;;
33844;SDS011;20145;43.118;25.694;2023-12-20T05:22:53;11.45;;;6.88;;
33844;SDS011;20145;43.118;25.694;2023-12-20T05:25:18;9.85;;;7.72;;
33844;SDS011;20145;43.118;25.694;2023-12-20T05:27:45;9.18;;;6.32;;
33844;SDS011;20145;43.118;25.694;2023-12-20T05:30:11;11.60;;;8.57;;
33844;SDS011;20145;43.118;25.694;2023-12-20T05:32:37;15.30;;;6.82;;
33844;SDS011;20145;43.118;25.694;2023-12-20T05:35:02;15.85;;;11.80;;
33844;SDS011;20145;43.118;25.694;2023-12-20T05:37:29;29.50;;;19.15;;
33844;SDS011;20145;43.118;25.694;2023-12-20T05:39:55;15.32;;;11.10;;
33844;SDS011;20145;43.118;25.694;2023-12-20T05:42:20;11.90;;;8.85;;
33844;SDS011;20145;43.118;25.694;2023-12-20T05:44:46;15.55;;;9.55;;
33844;SDS011;20145;43.118;25.694;2023-12-20T05:47:12;8.07;;;7.00;;
33844;SDS011;20145;43.118;25.694;2023-12-20T05:49:37;8.68;;;7.47;;
33844;SDS011;20145;43.118;25.694;2023-12-20T05:52:03;7.20;;;6.50;;
33844;SDS011;20145;43.118;25.694;2023-12-20T05:54:29;7.57;;;6.35;;
33844;SDS011;20145;43.118;25.694;2023-12-20T05:56:55;15.98;;;11.63;;
33844;SDS011;20145;43.118;25.694;2023-12-20T05:59:20;14.02;;;9.80;;
33844;SDS011;20145;43.118;25.694;2023-12-20T06:01:46;10.15;;;8.30;;
33844;SDS011;20145;43.118;25.694;2023-12-20T06:04:12;16.52;;;10.45;;
33844;SDS011;20145;43.118;25.694;2023-12-20T06:06:41;12.75;;;8.80;;
33844;SDS011;20145;43.118;25.694;2023-12-20T06:09:07;9.13;;;7.28;;
33844;SDS011;20145;43.118;25.694;2023-12-20T06:11:33;12.75;;;7.55;;
33844;SDS011;20145;43.118;25.694;2023-12-20T06:13:59;18.05;;;13.43;;
33844;SDS011;20145;43.118;25.694;2023-12-20T06:16:24;10.55;;;8.63;;
33844;SDS011;20145;43.118;25.694;2023-12-20T06:18:50;10.18;;;8.65;;
33844;SDS011;20145;43.118;25.694;2023-12-20T06:21:16;10.82;;;9.43;;
33844;SDS011;20145;43.118;25.694;2023-12-20T06:23:42;11.23;;;8.75;;
33844;SDS011;20145;43.118;25.694;2023-12-20T06:26:07;14.35;;;10.20;;
33844;SDS011;20145;43.118;25.694;2023-12-20T06:28:33;14.63;;;10.68;;
33844;SDS011;20145;43.118;25.694;2023-12-20T06:30:58;38.40;;;26.88;;
33844;SDS011;20145;43.118;25.694;2023-12-20T06:33:25;41.95;;;29.00;;
33844;SDS011;20145;43.118;25.694;2023-12-20T06:35:51;46.03;;;26.20;;
33844;SDS011;20145;43.118;25.694;2023-12-20T06:38:18;41.20;;;28.95;;
33844;SDS011;20145;43.118;25.694;2023-12-20T06:40:44;22.90;;;17.55;;
33844;SDS011;20145;43.118;25.694;2023-12-20T06:43:11;70.65;;;42.45;;
33844;SDS011;20145;43.118;25.694;2023-12-20T06:45:37;69.55;;;43.20;;
33844;SDS011;20145;43.118;25.694;2023-12-20T06:48:03;71.65;;;55.63;;
33844;SDS011;20145;43.118;25.694;2023-12-20T06:50:29;82.85;;;57.33;;
33844;SDS011;20145;43.118;25.694;2023-12-20T06:52:55;91.38;;;64.40;;
33844;SDS011;20145;43.118;25.694;2023-12-20T06:55:20;101.97;;;76.63;;
33844;SDS011;20145;43.118;25.694;2023-12-20T06:57:46;114.53;;;85.70;;
33844;SDS011;20145;43.118;25.694;2023-12-20T07:00:12;122.47;;;88.00;;
33844;SDS011;20145;43.118;25.694;2023-12-20T07:02:38;112.70;;;85.03;;
33844;SDS011;20145;43.118;25.694;2023-12-20T07:05:04;96.10;;;70.82;;
33844;SDS011;20145;43.118;25.694;2023-12-20T07:07:30;101.05;;;76.40;;
33844;SDS011;20145;43.118;25.694;2023-12-20T07:09:55;107.03;;;80.65;;
33844;SDS011;20145;43.118;25.694;2023-12-20T07:12:21;102.07;;;79.60;;
33844;SDS011;20145;43.118;25.694;2023-12-20T07:14:47;113.95;;;78.30;;
33844;SDS011;20145;43.118;25.694;2023-12-20T07:17:12;95.40;;;75.65;;
33844;SDS011;20145;43.118;25.694;2023-12-20T07:19:40;96.97;;;68.30;;
33844;SDS011;20145;43.118;25.694;2023-12-20T07:22:06;78.00;;;58.33;;
33844;SDS011;20145;43.118;25.694;2023-12-20T07:24:32;97.97;;;69.93;;
33844;SDS011;20145;43.118;25.694;2023-12-20T07:26:59;150.10;;;106.07;;
33844;SDS011;20145;43.118;25.694;2023-12-20T07:29:25;141.25;;;95.00;;
33844;SDS011;20145;43.118;25.694;2023-12-20T07:31:52;139.05;;;89.57;;
33844;SDS011;20145;43.118;25.694;2023-12-20T07:34:19;138.65;;;98.22;;
33844;SDS011;20145;43.118;25.694;2023-12-20T07:36:46;159.30;;;105.95;;
33844;SDS011;20145;43.118;25.694;2023-12-20T07:39:12;194.43;;;120.97;;
33844;SDS011;20145;43.118;25.694;2023-12-20T07:41:37;182.02;;;112.68;;
33844;SDS011;20145;43.118;25.694;2023-12-20T07:44:04;121.57;;;80.25;;
33844;SDS011;20145;43.118;25.694;2023-12-20T07:46:30;122.75;;;82.65;;
33844;SDS011;20145;43.118;25.694;2023-12-20T07:48:55;130.95;;;85.60;;
33844;SDS011;20145;43.118;25.694;2023-12-20T07:51:21;121.65;;;82.97;;
33844;SDS011;20145;43.118;25.694;2023-12-20T07:53:47;209.70;;;124.57;;
33844;SDS011;20145;43.118;25.694;2023-12-20T07:56:15;120.95;;;84.85;;
33844;SDS011;20145;43.118;25.694;2023-12-20T07:58:44;117.47;;;84.20;;
33844;SDS011;20145;43.118;25.694;2023-12-20T08:01:11;110.75;;;78.13;;
33844;SDS011;20145;43.118;25.694;2023-12-20T08:03:37;117.15;;;78.75;;
33844;SDS011;20145;43.118;25.694;2023-12-20T08:06:03;119.35;;;82.43;;
33844;SDS011;20145;43.118;25.694;2023-12-20T08:08:29;117.93;;;83.72;;
33844;SDS011;20145;43.118;25.694;2023-12-20T08:10:55;116.65;;;80.00;;
33844;SDS011;20145;43.118;25.694;2023-12-20T08:13:23;128.18;;;78.75;;
33844;SDS011;20145;43.118;25.694;2023-12-20T08:15:51;146.65;;;88.15;;
33844;SDS011;20145;43.118;25.694;2023-12-20T08:18:21;280.23;;;138.63;;
33844;SDS011;20145;43.118;25.694;2023-12-20T08:20:46;200.95;;;110.88;;
33844;SDS011;20145;43.118;25.694;2023-12-20T08:23:13;148.32;;;80.57;;
33844;SDS011;20145;43.118;25.694;2023-12-20T08:25:39;117.88;;;71.90;;
33844;SDS011;20145;43.118;25.694;2023-12-20T08:28:04;106.88;;;70.68;;
33844;SDS011;20145;43.118;25.694;2023-12-20T08:30:32;125.18;;;82.28;;
33844;SDS011;20145;43.118;25.694;2023-12-20T08:33:01;145.35;;;96.68;;
33844;SDS011;20145;43.118;25.694;2023-12-20T08:35:27;123.72;;;87.70;;
33844;SDS011;20145;43.118;25.694;2023-12-20T08:37:53;124.35;;;90.85;;
33844;SDS011;20145;43.118;25.694;2023-12-20T08:40:19;129.05;;;103.13;;
33844;SDS011;20145;43.118;25.694;2023-12-20T08:42:45;133.52;;;110.93;;
33844;SDS011;20145;43.118;25.694;2023-12-20T08:45:11;125.65;;;98.00;;
33844;SDS011;20145;43.118;25.694;2023-12-20T08:47:37;111.55;;;83.40;;
33844;SDS011;20145;43.118;25.694;2023-12-20T08:50:03;93.22;;;70.65;;
33844;SDS011;20145;43.118;25.694;2023-12-20T08:52:28;87.57;;;61.75;;
33844;SDS011;20145;43.118;25.694;2023-12-20T08:54:54;82.95;;;55.38;;
33844;SDS011;20145;43.118;25.694;2023-12-20T08:57:20;63.45;;;43.83;;
33844;SDS011;20145;43.118;25.694;2023-12-20T08:59:48;63.35;;;41.58;;
33844;SDS011;20145;43.118;25.694;2023-12-20T09:02:14;57.33;;;35.17;;
33844;SDS011;20145;43.118;25.694;2023-12-20T09:04:41;35.00;;;23.35;;
33844;SDS011;20145;43.118;25.694;2023-12-20T09:07:06;24.25;;;15.95;;
33844;SDS011;20145;43.118;25.694;2023-12-20T09:09:32;33.40;;;20.58;;
33844;SDS011;20145;43.118;25.694;2023-12-20T09:11:59;21.65;;;12.10;;
33844;SDS011;20145;43.118;25.694;2023-12-20T09:14:24;22.20;;;12.48;;
33844;SDS011;20145;43.118;25.694;2023-12-20T09:16:50;18.42;;;12.82;;
33844;SDS011;20145;43.118;25.694;2023-12-20T09:19:19;18.13;;;13.15;;
33844;SDS011;20145;43.118;25.694;2023-12-20T09:21:44;11.75;;;9.10;;
33844;SDS011;20145;43.118;25.694;2023-12-20T09:24:10;10.93;;;7.00;;
33844;SDS011;20145;43.118;25.694;2023-12-20T09:26:36;11.18;;;6.47;;
33844;SDS011;20145;43.118;25.694;2023-12-20T09:29:02;9.40;;;6.78;;
33844;SDS011;20145;43.118;25.694;2023-12-20T09:31:28;6.15;;;4.30;;
33844;SDS011;20145;43.118;25.694;2023-12-20T09:33:54;6.80;;;4.65;;
33844;SDS011;20145;43.118;25.694;2023-12-20T09:36:19;8.73;;;5.68;;
33844;SDS011;20145;43.118;25.694;2023-12-20T09:38:45;10.65;;;6.80;;
33844;SDS011;20145;43.118;25.694;2023-12-20T09:41:11;8.93;;;6.80;;
33844;SDS011;20145;43.118;25.694;2023-12-20T09:43:37;25.95;;;8.07;;
33844;SDS011;20145;43.118;25.694;2023-12-20T09:46:05;8.05;;;6.35;;
33844;SDS011;20145;43.118;25.694;2023-12-20T09:48:32;16.70;;;10.48;;
33844;SDS011;20145;43.118;25.694;2023-12-20T09:50:58;19.98;;;12.73;;
33844;SDS011;20145;43.118;25.694;2023-12-20T09:53:24;27.35;;;14.10;;
33844;SDS011;20145;43.118;25.694;2023-12-20T09:55:56;25.05;;;15.77;;
33844;SDS011;20145;43.118;25.694;2023-12-20T09:58:24;22.70;;;13.35;;
33844;SDS011;20145;43.118;25.694;2023-12-20T10:00:50;22.88;;;11.95;;
33844;SDS011;20145;43.118;25.694;2023-12-20T10:03:16;17.27;;;10.20;;
33844;SDS011;20145;43.118;25.694;2023-12-20T10:05:47;12.27;;;9.15;;
33844;SDS011;20145;43.118;25.694;2023-12-20T10:08:16;15.60;;;10.30;;
33844;SDS011;20145;43.118;25.694;2023-12-20T10:10:42;11.85;;;9.25;;
33844;SDS011;20145;43.118;25.694;2023-12-20T10:13:11;22.48;;;9.05;;
33844;SDS011;20145;43.118;25.694;2023-12-20T10:15:38;18.20;;;9.55;;
33844;SDS011;20145;43.118;25.694;2023-12-20T10:18:04;14.02;;;9.82;;
33844;SDS011;20145;43.118;25.694;2023-12-20T10:20:30;14.40;;;9.25;;
33844;SDS011;20145;43.118;25.694;2023-12-20T10:22:59;15.10;;;9.25;;
33844;SDS011;20145;43.118;25.694;2023-12-20T10:25:26;12.20;;;8.05;;
33844;SDS011;20145;43.118;25.694;2023-12-20T10:30:53;16.97;;;11.00;;
33844;SDS011;20145;43.118;25.694;2023-12-20T10:33:25;16.13;;;9.40;;
33844;SDS011;20145;43.118;25.694;2023-12-20T10:35:57;13.88;;;9.23;;
33844;SDS011;20145;43.118;25.694;2023-12-20T10:38:23;10.82;;;8.07;;
33844;SDS011;20145;43.118;25.694;2023-12-20T10:40:49;21.65;;;9.68;;
33844;SDS011;20145;43.118;25.694;2023-12-20T10:43:20;13.30;;;8.73;;
33844;SDS011;20145;43.118;25.694;2023-12-20T10:45:46;13.93;;;9.93;;
33844;SDS011;20145;43.118;25.694;2023-12-20T10:48:12;19.27;;;13.50;;
33844;SDS011;20145;43.118;25.694;2023-12-20T10:50:38;25.58;;;15.05;;
33844;SDS011;20145;43.118;25.694;2023-12-20T10:53:04;30.08;;;18.17;;
33844;SDS011;20145;43.118;25.694;2023-12-20T10:55:29;30.30;;;19.75;;
33844;SDS011;20145;43.118;25.694;2023-12-20T10:58:00;34.75;;;20.65;;
33844;SDS011;20145;43.118;25.694;2023-12-20T11:00:26;39.15;;;19.95;;
33844;SDS011;20145;43.118;25.694;2023-12-20T11:02:57;27.25;;;19.50;;
33844;SDS011;20145;43.118;25.694;2023-12-20T11:08:07;34.72;;;23.13;;
33844;SDS011;20145;43.118;25.694;2023-12-20T11:10:46;36.13;;;24.38;;
33844;SDS011;20145;43.118;25.694;2023-12-20T11:14:05;35.20;;;25.80;;
33844;SDS011;20145;43.118;25.694;2023-12-20T11:16:38;33.85;;;26.77;;
33844;SDS011;20145;43.118;25.694;2023-12-20T11:19:06;33.92;;;25.15;;
33844;SDS011;20145;43.118;25.694;2023-12-20T11:21:32;38.00;;;26.98;;
33844;SDS011;20145;43.118;25.694;2023-12-20T11:23:58;39.38;;;28.02;;
33844;SDS011;20145;43.118;25.694;2023-12-20T11:26:28;32.92;;;25.13;;
33844;SDS011;20145;43.118;25.694;2023-12-20T11:28:54;34.53;;;25.50;;
33844;SDS011;20145;43.118;25.694;2023-12-20T11:31:40;31.90;;;23.98;;
33844;SDS011;20145;43.118;25.694;2023-12-20T11:34:15;36.33;;;24.23;;
33844;SDS011;20145;43.118;25.694;2023-12-20T11:36:42;34.65;;;27.67;;
33844;SDS011;20145;43.118;25.694;2023-12-20T11:39:08;33.75;;;24.60;;
33844;SDS011;20145;43.118;25.694;2023-12-20T11:41:36;38.45;;;25.13;;
33844;SDS011;20145;43.118;25.694;2023-12-20T11:44:02;36.85;;;24.20;;
33844;SDS011;20145;43.118;25.694;2023-12-20T11:46:30;36.80;;;24.02;;
33844;SDS011;20145;43.118;25.694;2023-12-20T11:48:57;34.67;;;26.02;;
33844;SDS011;20145;43.118;25.694;2023-12-20T11:51:22;29.20;;;22.00;;
33844;SDS011;20145;43.118;25.694;2023-12-20T11:53:51;40.45;;;26.40;;
33844;SDS011;20145;43.118;25.694;2023-12-20T11:56:18;44.10;;;28.25;;
33844;SDS011;20145;43.118;25.694;2023-12-20T11:58:44;37.97;;;28.75;;
33844;SDS011;20145;43.118;25.694;2023-12-20T12:01:09;45.03;;;31.10;;
33844;SDS011;20145;43.118;25.694;2023-12-20T12:03:35;41.55;;;26.30;;
33844;SDS011;20145;43.118;25.694;2023-12-20T12:06:01;41.53;;;30.27;;
33844;SDS011;20145;43.118;25.694;2023-12-20T12:08:29;35.40;;;23.45;;
33844;SDS011;20145;43.118;25.694;2023-12-20T12:10:55;31.48;;;22.45;;
33844;SDS011;20145;43.118;25.694;2023-12-20T12:13:21;26.63;;;19.88;;
33844;SDS011;20145;43.118;25.694;2023-12-20T12:15:47;26.88;;;20.83;;
33844;SDS011;20145;43.118;25.694;2023-12-20T12:18:15;28.52;;;22.75;;
33844;SDS011;20145;43.118;25.694;2023-12-20T12:20:42;32.22;;;23.13;;
33844;SDS011;20145;43.118;25.694;2023-12-20T12:23:07;26.35;;;21.90;;
33844;SDS011;20145;43.118;25.694;2023-12-20T12:25:36;34.35;;;22.55;;
33844;SDS011;20145;43.118;25.694;2023-12-20T12:28:02;28.30;;;20.35;;
33844;SDS011;20145;43.118;25.694;2023-12-20T12:30:28;41.72;;;23.58;;
33844;SDS011;20145;43.118;25.694;2023-12-20T12:32:56;54.90;;;32.90;;
33844;SDS011;20145;43.118;25.694;2023-12-20T12:35:23;29.38;;;19.05;;
33844;SDS011;20145;43.118;25.694;2023-12-20T12:37:49;36.05;;;19.10;;
33844;SDS011;20145;43.118;25.694;2023-12-20T12:40:15;37.03;;;21.02;;
33844;SDS011;20145;43.118;25.694;2023-12-20T12:42:43;36.60;;;24.75;;
33844;SDS011;20145;43.118;25.694;2023-12-20T12:45:10;42.55;;;26.10;;
33844;SDS011;20145;43.118;25.694;2023-12-20T12:47:36;38.53;;;25.70;;
33844;SDS011;20145;43.118;25.694;2023-12-20T12:50:03;40.15;;;27.58;;
33844;SDS011;20145;43.118;25.694;2023-12-20T12:52:29;45.95;;;28.73;;
33844;SDS011;20145;43.118;25.694;2023-12-20T12:54:56;49.45;;;30.23;;
33844;SDS011;20145;43.118;25.694;2023-12-20T12:57:21;48.15;;;31.45;;
33844;SDS011;20145;43.118;25.694;2023-12-20T12:59:47;48.03;;;32.28;;
33844;SDS011;20145;43.118;25.694;2023-12-20T13:02:13;55.30;;;35.80;;
33844;SDS011;20145;43.118;25.694;2023-12-20T13:04:39;67.72;;;44.03;;
33844;SDS011;20145;43.118;25.694;2023-12-20T13:07:08;61.05;;;39.25;;
33844;SDS011;20145;43.118;25.694;2023-12-20T13:09:37;68.40;;;43.40;;
33844;SDS011;20145;43.118;25.694;2023-12-20T13:12:04;56.20;;;36.25;;
33844;SDS011;20145;43.118;25.694;2023-12-20T13:14:33;55.00;;;39.72;;
33844;SDS011;20145;43.118;25.694;2023-12-20T13:17:00;45.22;;;31.80;;
33844;SDS011;20145;43.118;25.694;2023-12-20T13:19:26;56.35;;;35.13;;
33844;SDS011;20145;43.118;25.694;2023-12-20T13:21:52;75.88;;;41.88;;
33844;SDS011;20145;43.118;25.694;2023-12-20T13:24:18;100.93;;;48.33;;
33844;SDS011;20145;43.118;25.694;2023-12-20T13:26:44;127.50;;;60.00;;
33844;SDS011;20145;43.118;25.694;2023-12-20T13:29:09;294.35;;;99.85;;
33844;SDS011;20145;43.118;25.694;2023-12-20T13:31:35;226.63;;;88.47;;
33844;SDS011;20145;43.118;25.694;2023-12-20T13:34:01;503.83;;;173.85;;
33844;SDS011;20145;43.118;25.694;2023-12-20T13:36:27;399.20;;;141.25;;
33844;SDS011;20145;43.118;25.694;2023-12-20T13:38:53;309.63;;;116.78;;
33844;SDS011;20145;43.118;25.694;2023-12-20T13:41:19;250.52;;;94.68;;
33844;SDS011;20145;43.118;25.694;2023-12-20T13:43:45;264.38;;;111.10;;
33844;SDS011;20145;43.118;25.694;2023-12-20T13:46:11;174.77;;;75.97;;
33844;SDS011;20145;43.118;25.694;2023-12-20T13:48:36;85.35;;;41.30;;
33844;SDS011;20145;43.118;25.694;2023-12-20T13:51:03;91.15;;;43.60;;
33844;SDS011;20145;43.118;25.694;2023-12-20T13:53:28;74.00;;;40.15;;
33844;SDS011;20145;43.118;25.694;2023-12-20T13:55:54;68.15;;;34.50;;
33844;SDS011;20145;43.118;25.694;2023-12-20T13:58:20;45.97;;;28.33;;
33844;SDS011;20145;43.118;25.694;2023-12-20T14:00:45;42.35;;;25.95;;
33844;SDS011;20145;43.118;25.694;2023-12-20T14:03:11;48.53;;;25.90;;
33844;SDS011;20145;43.118;25.694;2023-12-20T14:05:37;43.15;;;26.33;;
33844;SDS011;20145;43.118;25.694;2023-12-20T14:08:03;40.25;;;26.77;;
33844;SDS011;20145;43.118;25.694;2023-12-20T14:10:29;39.90;;;25.10;;
33844;SDS011;20145;43.118;25.694;2023-12-20T14:12:55;42.42;;;27.20;;
33844;SDS011;20145;43.118;25.694;2023-12-20T14:15:21;39.95;;;24.85;;
33844;SDS011;20145;43.118;25.694;2023-12-20T14:17:46;45.90;;;26.10;;
33844;SDS011;20145;43.118;25.694;2023-12-20T14:20:12;58.75;;;31.60;;
33844;SDS011;20145;43.118;25.694;2023-12-20T14:22:38;67.55;;;39.97;;